Time;durP1;ratioP1;P1;durP2;ratioP2;P2;SDS_P1;SDS_P2;PMS_P1;PMS_P2;Temp;Humidity;BMP_temperature;BMP_pressure;BME280_temperature;BME280_humidity;BME280_pressure;Samples;Min_cycle;Max_cycle;Signal;HPM_P1;HPM_P2
2023/03/22 00:00:28;;;;;;;;;;;16.20;72.00;;;;;;5035697;28;20042;-53
2023/03/22 00:02:55;;;;;;;5.82;2.10;;;16.20;72.00;;;;;;5034971;28;19925;-55
2023/03/22 00:05:22;;;;;;;5.38;1.48;;;16.20;72.00;;;;;;5034720;28;20081;-51
2023/03/22 00:07:57;;;;;;;5.18;1.30;;;16.10;72.10;;;;;;5035227;28;20095;-52
2023/03/22 00:10:24;;;;;;;6.03;2.00;;;16.10;72.00;;;;;;5034715;28;20041;-54
2023/03/22 00:12:51;;;;;;;5.93;1.85;;;16.10;72.00;;;;;;5034178;28;20144;-53
2023/03/22 00:15:18;;;;;;;5.13;1.90;;;16.10;72.00;;;;;;5034770;28;20140;-55
2023/03/22 00:17:45;;;;;;;3.33;1.42;;;16.10;72.00;;;;;;5033410;28;20076;-53
2023/03/22 00:20:12;;;;;;;4.00;1.90;;;16.10;72.00;;;;;;5034736;28;20504;-55
2023/03/22 00:22:38;;;;;;;6.35;1.90;;;16.10;72.00;;;;;;5034857;28;20495;-52
2023/03/22 00:25:05;;;;;;;4.13;1.38;;;16.10;72.00;;;;;;5034307;28;20045;-53
2023/03/22 00:27:32;;;;;;;4.28;1.70;;;16.10;72.00;;;;;;5035022;28;20050;-54
2023/03/22 00:29:59;;;;;;;4.15;1.20;;;16.00;72.00;;;;;;5034515;28;20492;-52
2023/03/22 00:32:25;;;;;;;5.05;1.55;;;16.10;72.10;;;;;;5034464;28;20145;-54
2023/03/22 00:34:58;;;;;;;5.20;1.70;;;16.10;72.20;;;;;;5034638;28;20087;-55
2023/03/22 00:37:26;;;;;;;3.75;1.48;;;16.00;72.20;;;;;;5034410;28;20152;-54
2023/03/22 00:39:53;;;;;;;3.08;1.73;;;16.00;72.00;;;;;;5034005;28;20046;-53
2023/03/22 00:42:20;;;;;;;3.35;1.15;;;16.00;72.00;;;;;;5034139;28;20049;-51
2023/03/22 00:44:49;;;;;;;4.03;1.55;;;16.00;72.10;;;;;;5034244;28;20410;-54
2023/03/22 00:47:19;;;;;;;4.47;1.77;;;16.00;72.00;;;;;;5034183;28;20072;-53
2023/03/22 00:49:45;;;;;;;3.80;1.60;;;16.00;72.00;;;;;;5034261;28;20424;-54
2023/03/22 00:52:12;;;;;;;3.80;1.63;;;16.00;72.00;;;;;;5034325;28;20099;-54
2023/03/22 00:54:39;;;;;;;5.20;1.50;;;16.00;72.60;;;;;;5025153;28;20137;-54
2023/03/22 00:57:06;;;;;;;3.65;1.58;;;16.00;72.10;;;;;;5034482;28;20046;-53
2023/03/22 00:59:37;;;;;;;4.07;1.70;;;16.00;72.00;;;;;;5034196;28;20095;-55
2023/03/22 01:02:04;;;;;;;7.72;2.60;;;16.00;72.60;;;;;;5033603;28;20140;-54
2023/03/22 01:04:34;;;;;;;4.10;1.83;;;16.00;72.00;;;;;;5034051;28;20503;-50
2023/03/22 01:07:02;;;;;;;3.60;1.73;;;16.00;72.00;;;;;;5033484;28;20050;-54
2023/03/22 01:09:30;;;;;;;5.28;1.85;;;16.00;72.00;;;;;;5034161;28;20136;-54
2023/03/22 01:11:56;;;;;;;3.83;1.50;;;16.00;72.10;;;;;;5033841;28;20141;-53
2023/03/22 01:14:24;;;;;;;5.28;1.75;;;16.00;72.00;;;;;;5033345;28;20447;-54
2023/03/22 01:16:53;;;;;;;5.30;1.55;;;15.90;72.60;;;;;;5034103;28;20057;-54
2023/03/22 01:19:20;;;;;;;7.43;1.60;;;15.90;71.90;;;;;;5034093;28;20056;-52
2023/03/22 01:21:47;;;;;;;4.22;2.13;;;16.00;72.00;;;;;;5033446;28;20132;-55
2023/03/22 01:24:14;;;;;;;4.10;1.77;;;16.00;72.10;;;;;;5033610;28;20500;-54
2023/03/22 01:26:41;;;;;;;4.15;1.80;;;15.90;72.00;;;;;;5033772;28;20076;-53
2023/03/22 01:29:08;;;;;;;3.38;1.58;;;15.90;72.00;;;;;;5031798;28;20050;-53
2023/03/22 01:31:34;;;;;;;4.72;2.00;;;16.00;72.00;;;;;;5033802;28;20511;-52
2023/03/22 01:34:01;;;;;;;3.88;1.75;;;15.90;72.00;;;;;;5033659;28;20091;-54
2023/03/22 01:36:28;;;;;;;5.47;1.58;;;15.90;72.10;;;;;;5032993;28;20052;-54
2023/03/22 01:38:55;;;;;;;5.70;1.80;;;15.90;71.90;;;;;;5033428;28;20076;-52
2023/03/22 01:41:21;;;;;;;4.97;1.90;;;15.90;72.10;;;;;;5033429;28;20045;-54
2023/03/22 01:44:14;;;;;;;5.57;2.05;;;15.90;71.90;;;;;;5032458;28;20052;-55
2023/03/22 01:46:42;;;;;;;4.43;1.63;;;15.90;72.00;;;;;;5033287;28;20083;-52
2023/03/22 01:49:12;;;;;;;3.55;1.60;;;15.90;72.00;;;;;;5032717;28;20460;-53
2023/03/22 01:51:39;;;;;;;4.32;1.83;;;15.90;72.00;;;;;;5033254;28;20053;-54
2023/03/22 01:54:12;;;;;;;4.68;1.80;;;15.90;72.00;;;;;;5032669;28;20060;-54
2023/03/22 01:56:39;;;;;;;4.18;1.73;;;15.90;71.90;;;;;;5031772;28;20061;-55
2023/03/22 01:59:08;;;;;;;4.72;1.63;;;15.90;72.00;;;;;;5023436;28;20079;-51
2023/03/22 02:01:34;;;;;;;4.93;1.88;;;15.90;72.00;;;;;;5032452;28;20140;-54
2023/03/22 02:04:07;;;;;;;4.15;1.50;;;15.90;72.00;;;;;;5032494;28;20091;-52
2023/03/22 02:06:37;;;;;;;3.78;1.48;;;15.90;72.10;;;;;;5031859;28;20555;-53
2023/03/22 02:09:06;;;;;;;8.00;1.98;;;15.80;72.00;;;;;;5032972;28;20104;-52
2023/03/22 02:11:37;;;;;;;3.20;1.75;;;15.80;72.00;;;;;;5032325;28;20060;-52
2023/03/22 02:14:45;;;;;;;4.20;1.42;;;15.80;72.10;;;;;;5032801;28;20057;-51
2023/03/22 02:17:36;;;;;;;3.33;1.63;;;15.80;72.20;;;;;;5031588;28;20483;-52
2023/03/22 02:20:09;;;;;;;4.22;1.67;;;15.80;72.10;;;;;;5033073;28;20473;-52
2023/03/22 02:22:42;;;;;;;;;;;15.80;72.10;;;;;;5033226;28;20108;-54
2023/03/22 02:25:31;;;;;;;4.70;1.93;;;15.80;72.10;;;;;;5032274;28;19928;-54
2023/03/22 02:27:57;;;;;;;4.30;1.58;;;15.80;72.10;;;;;;5032643;28;20737;-53
2023/03/22 02:31:01;;;;;;;4.50;1.63;;;15.80;72.10;;;;;;5032672;28;20481;-51
2023/03/22 02:33:53;;;;;;;3.88;1.58;;;15.70;72.10;;;;;;5032227;28;20480;-52
2023/03/22 02:36:29;;;;;;;3.45;1.63;;;15.80;72.10;;;;;;5032522;28;20049;-52
2023/03/22 02:39:17;;;;;;;5.15;1.98;;;15.70;72.00;;;;;;5032032;28;20454;-54
2023/03/22 02:42:13;;;;;;;3.20;1.45;;;15.70;72.70;;;;;;5032050;28;20072;-53
2023/03/22 02:44:49;;;;;;;2.95;1.67;;;15.70;72.10;;;;;;5031007;28;20056;-54
2023/03/22 02:47:23;;;;;;;4.47;1.67;;;15.70;72.10;;;;;;5031475;28;20136;-54
2023/03/22 02:49:56;;;;;;;4.57;1.88;;;15.70;72.10;;;;;;5031481;28;20049;-53
2023/03/22 02:52:40;;;;;;;3.80;1.88;;;15.70;72.20;;;;;;5031866;28;20073;-49
2023/03/22 02:55:17;;;;;;;7.78;2.33;;;15.70;72.10;;;;;;5033121;28;20088;-52
2023/03/22 02:58:10;;;;;;;3.63;1.70;;;15.70;72.10;;;;;;5032485;28;20049;-53
2023/03/22 03:00:37;;;;;;;3.13;1.50;;;15.70;72.10;;;;;;5031055;28;20073;-54
2023/03/22 03:03:10;;;;;;;4.72;1.55;;;15.70;72.10;;;;;;5024451;28;20084;-49
2023/03/22 03:05:41;;;;;;;2.63;1.50;;;15.70;72.20;;;;;;5007686;28;20402;-53
2023/03/22 03:08:09;;;;;;;3.72;1.65;;;15.70;72.10;;;;;;4991011;28;20309;-53
2023/03/22 03:10:37;;;;;;;4.30;1.83;;;15.70;72.10;;;;;;4991632;28;20054;-54
2023/03/22 03:13:04;;;;;;;3.63;1.67;;;15.70;72.20;;;;;;4991533;28;20125;-51
2023/03/22 03:15:31;;;;;;;5.55;1.98;;;15.70;72.20;;;;;;4992373;28;20057;-54
2023/03/22 03:18:10;;;;;;;4.78;2.17;;;15.70;72.10;;;;;;4991538;28;20477;-53
2023/03/22 03:20:42;;;;;;;5.63;2.28;;;15.70;72.20;;;;;;4992394;28;20046;-54
2023/03/22 03:23:23;;;;;;;2.55;1.50;;;15.70;72.20;;;;;;4992815;28;20073;-53
2023/03/22 03:26:11;;;;;;;2.72;1.85;;;15.70;72.10;;;;;;4991977;28;20069;-54
2023/03/22 03:29:00;;;;;;;3.83;1.70;;;15.70;72.20;;;;;;4992161;28;20097;-54
2023/03/22 03:31:33;;;;;;;3.97;2.10;;;15.70;72.30;;;;;;4991557;28;20057;-54
2023/03/22 03:34:29;;;;;;;5.10;2.25;;;15.70;72.30;;;;;;4991697;28;20047;-54
2023/03/22 03:37:07;;;;;;;4.30;1.88;;;15.70;72.30;;;;;;4991941;28;20081;-53
2023/03/22 03:39:36;;;;;;;2.80;1.88;;;15.60;72.20;;;;;;4991600;28;20046;-51
2023/03/22 03:42:03;;;;;;;4.95;1.90;;;15.70;72.40;;;;;;4990992;28;20047;-53
2023/03/22 03:44:30;;;;;;;2.95;1.77;;;15.60;72.30;;;;;;4991272;28;20050;-51
2023/03/22 03:46:56;;;;;;;4.03;1.80;;;15.60;72.30;;;;;;4992667;28;20080;-52
2023/03/22 03:49:23;;;;;;;4.38;1.70;;;15.60;72.20;;;;;;4990923;28;20504;-54
2023/03/22 03:51:54;;;;;;;3.97;1.88;;;15.60;72.30;;;;;;4991590;28;20050;-53
2023/03/22 03:54:24;;;;;;;5.55;1.73;;;15.60;72.30;;;;;;4994774;28;20065;-51
2023/03/22 03:56:53;;;;;;;4.40;2.42;;;15.60;72.30;;;;;;4995798;28;20137;-53
2023/03/22 03:59:20;;;;;;;4.50;1.98;;;15.60;72.30;;;;;;4996363;28;20042;-54
2023/03/22 04:01:51;;;;;;;4.15;2.20;;;15.60;72.30;;;;;;4995784;28;20457;-53
2023/03/22 04:04:25;;;;;;;5.18;2.15;;;15.60;72.30;;;;;;4995785;28;20047;-53
2023/03/22 04:06:57;;;;;;;4.85;2.30;;;15.60;72.30;;;;;;4994161;28;20569;-53
2023/03/22 04:09:26;;;;;;;3.30;1.88;;;15.60;72.30;;;;;;5030825;28;20060;-55
2023/03/22 04:11:53;;;;;;;5.93;2.13;;;15.60;72.30;;;;;;5034137;28;20408;-53
2023/03/22 04:14:20;;;;;;;3.63;2.08;;;15.60;72.40;;;;;;5034595;28;20049;-54
2023/03/22 04:16:47;;;;;;;4.43;2.20;;;15.50;72.20;;;;;;5034056;28;20057;-54
2023/03/22 04:19:14;;;;;;;3.75;2.03;;;15.60;72.40;;;;;;5034757;28;20049;-54
2023/03/22 04:21:41;;;;;;;3.35;1.70;;;15.60;72.40;;;;;;5034810;28;20675;-53
2023/03/22 04:24:07;;;;;;;4.45;2.15;;;15.60;72.30;;;;;;5034358;28;20046;-53
2023/03/22 04:26:34;;;;;;;4.45;2.25;;;15.60;72.40;;;;;;5034768;28;20494;-54
2023/03/22 04:29:01;;;;;;;2.97;1.95;;;15.60;72.30;;;;;;5034609;28;20081;-54
2023/03/22 04:31:29;;;;;;;6.88;1.98;;;15.60;72.40;;;;;;5034536;28;20132;-51
2023/03/22 04:33:56;;;;;;;3.97;1.90;;;15.60;72.20;;;;;;5034809;28;20073;-53
2023/03/22 04:36:23;;;;;;;2.70;1.70;;;15.60;72.40;;;;;;5034586;28;20053;-54
2023/03/22 04:38:50;;;;;;;4.38;1.90;;;15.50;72.30;;;;;;5034179;28;20076;-53
2023/03/22 04:41:17;;;;;;;3.92;1.98;;;15.50;72.30;;;;;;5034279;28;20055;-54
2023/03/22 04:43:45;;;;;;;3.42;2.00;;;15.50;72.30;;;;;;5034446;28;20054;-53
2023/03/22 04:46:12;;;;;;;4.45;2.30;;;15.60;72.40;;;;;;5034045;28;20051;-52
2023/03/22 04:48:40;;;;;;;3.75;2.05;;;15.50;72.30;;;;;;5034848;28;20056;-51
2023/03/22 04:51:08;;;;;;;5.03;2.45;;;15.50;72.30;;;;;;5034650;28;20088;-54
2023/03/22 04:53:37;;;;;;;3.15;2.00;;;15.50;72.30;;;;;;5034110;28;20107;-52
2023/03/22 04:56:08;;;;;;;3.80;2.30;;;15.50;72.30;;;;;;5034205;28;20694;-52
2023/03/22 04:58:37;;;;;;;2.90;1.80;;;15.50;72.30;;;;;;5034267;28;20049;-50
2023/03/22 05:01:06;;;;;;;5.90;2.08;;;15.60;72.40;;;;;;5033914;28;20091;-54
2023/03/22 05:03:32;;;;;;;4.47;2.20;;;15.50;72.20;;;;;;5009091;28;20136;-54
2023/03/22 05:06:00;;;;;;;4.20;2.50;;;15.50;72.20;;;;;;5001733;28;20077;-52
2023/03/22 05:08:27;;;;;;;4.28;1.98;;;15.50;72.20;;;;;;5013814;28;20056;-54
2023/03/22 05:10:56;;;;;;;3.65;2.22;;;15.50;72.20;;;;;;5011639;28;20046;-53
2023/03/22 05:13:26;;;;;;;3.42;2.17;;;15.50;72.30;;;;;;5026718;28;20056;-51
2023/03/22 05:15:55;;;;;;;4.97;2.10;;;15.50;72.30;;;;;;5019851;28;20137;-53
2023/03/22 05:18:25;;;;;;;4.32;2.22;;;15.50;72.20;;;;;;5014079;28;20092;-53
2023/03/22 05:20:54;;;;;;;4.38;2.40;;;15.50;72.20;;;;;;5013324;28;20045;-51
2023/03/22 05:23:21;;;;;;;4.90;2.08;;;15.50;72.20;;;;;;5013963;28;20045;-54
2023/03/22 05:25:49;;;;;;;3.22;1.90;;;15.50;72.20;;;;;;5013665;28;20499;-51
2023/03/22 05:28:18;;;;;;;3.47;2.10;;;15.50;72.20;;;;;;5013266;28;20403;-49
2023/03/22 05:30:45;;;;;;;4.20;2.00;;;15.50;72.20;;;;;;5013724;28;20397;-54
2023/03/22 05:33:13;;;;;;;5.85;2.53;;;15.50;72.20;;;;;;5014086;28;20046;-51
2023/03/22 05:35:40;;;;;;;5.80;2.30;;;15.50;72.20;;;;;;5013048;28;20532;-52
2023/03/22 05:38:07;;;;;;;3.63;1.85;;;15.50;72.20;;;;;;5013403;28;20093;-53
2023/03/22 05:40:34;;;;;;;4.40;2.03;;;15.50;72.20;;;;;;5013506;28;20073;-49
2023/03/22 05:43:00;;;;;;;5.22;2.00;;;15.50;72.10;;;;;;5012930;28;20472;-52
2023/03/22 05:45:27;;;;;;;6.05;2.00;;;15.50;72.10;;;;;;5013197;28;20081;-54
2023/03/22 05:47:54;;;;;;;4.15;2.38;;;15.50;72.10;;;;;;5013442;28;20057;-53
2023/03/22 05:50:21;;;;;;;4.20;2.17;;;15.50;72.10;;;;;;5012634;28;20053;-54
2023/03/22 05:52:48;;;;;;;4.25;2.30;;;15.50;72.10;;;;;;5013436;28;20416;-54
2023/03/22 05:55:16;;;;;;;2.55;1.55;;;15.50;72.00;;;;;;5013698;28;20067;-52
2023/03/22 05:57:43;;;;;;;4.25;1.88;;;15.50;72.20;;;;;;5013220;28;20057;-57
2023/03/22 06:00:15;;;;;;;3.30;1.83;;;15.50;72.10;;;;;;5013325;28;20536;-55
2023/03/22 06:02:42;;;;;;;3.58;1.90;;;15.50;72.20;;;;;;5012311;28;20056;-57
2023/03/22 06:05:12;;;;;;;4.07;2.13;;;15.50;72.20;;;;;;5013183;28;20042;-58
2023/03/22 06:07:41;;;;;;;3.45;1.92;;;15.50;72.10;;;;;;5013078;28;20061;-57
2023/03/22 06:10:09;;;;;;;3.30;1.67;;;15.50;72.10;;;;;;5012281;28;20077;-55
2023/03/22 06:12:39;;;;;;;4.38;1.77;;;15.50;72.10;;;;;;5012890;28;20046;-58
2023/03/22 06:15:06;;;;;;;3.58;1.77;;;15.50;72.00;;;;;;5010131;28;20077;-58
2023/03/22 06:17:36;;;;;;;3.38;1.42;;;15.50;72.10;;;;;;5026218;28;20049;-58
2023/03/22 06:20:10;;;;;;;3.85;1.55;;;15.50;72.00;;;;;;4977379;28;20069;-58
2023/03/22 06:22:37;;;;;;;3.85;1.70;;;15.50;72.00;;;;;;5013311;28;20148;-57
2023/03/22 06:25:05;;;;;;;4.20;1.90;;;15.50;72.00;;;;;;5011748;28;20045;-57
2023/03/22 06:27:32;;;;;;;2.88;1.58;;;15.50;72.00;;;;;;5012762;28;20049;-57
2023/03/22 06:29:59;;;;;;;4.65;1.85;;;15.50;72.00;;;;;;5012660;28;20054;-58
2023/03/22 06:32:26;;;;;;;2.85;1.70;;;15.50;71.90;;;;;;5012527;28;20134;-59
2023/03/22 06:34:53;;;;;;;4.18;2.05;;;15.60;72.00;;;;;;5013080;28;20420;-58
2023/03/22 06:37:20;;;;;;;2.85;1.83;;;15.50;72.00;;;;;;5012961;28;20049;-57
2023/03/22 06:39:47;;;;;;;2.80;1.20;;;15.50;72.00;;;;;;5011900;28;20495;-58
2023/03/22 06:42:14;;;;;;;4.75;1.80;;;15.50;71.90;;;;;;5012433;28;20069;-59
2023/03/22 06:44:42;;;;;;;5.35;1.80;;;15.50;72.00;;;;;;5012012;28;20061;-58
2023/03/22 06:47:10;;;;;;;3.20;1.48;;;15.50;72.00;;;;;;5012388;28;20042;-56
2023/03/22 06:49:37;;;;;;;3.75;1.85;;;15.50;72.00;;;;;;5012686;28;20057;-57
2023/03/22 06:52:04;;;;;;;3.35;1.60;;;15.50;71.80;;;;;;5017344;28;20042;-52
2023/03/22 06:54:31;;;;;;;2.55;1.60;;;15.50;72.10;;;;;;5016714;28;20117;-52
2023/03/22 06:56:58;;;;;;;6.68;2.00;;;15.60;72.00;;;;;;5014295;28;20103;-55
2023/03/22 06:59:25;;;;;;;4.30;2.35;;;15.70;72.30;;;;;;5012299;28;20500;-57
2023/03/22 07:01:52;;;;;;;5.53;2.15;;;15.80;72.70;;;;;;5012642;28;20042;-56
2023/03/22 07:04:18;;;;;;;3.58;1.88;;;15.90;72.90;;;;;;5012390;28;20050;-56
2023/03/22 07:06:45;;;;;;;4.00;1.58;;;15.90;73.20;;;;;;5012042;28;20042;-50
2023/03/22 07:09:12;;;;;;;4.85;1.98;;;16.00;72.90;;;;;;5012740;28;20046;-55
2023/03/22 07:11:39;;;;;;;4.70;1.70;;;16.10;73.00;;;;;;5012155;28;20057;-55
2023/03/22 07:14:06;;;;;;;4.28;2.10;;;16.10;72.80;;;;;;5012064;28;20050;-56
2023/03/22 07:16:32;;;;;;;2.78;1.50;;;16.10;72.80;;;;;;5012348;28;20046;-57
2023/03/22 07:18:59;;;;;;;5.10;2.05;;;16.00;73.00;;;;;;5011295;28;20062;-56
2023/03/22 07:21:26;;;;;;;4.93;1.80;;;16.10;72.80;;;;;;5015998;28;20115;-58
2023/03/22 07:23:54;;;;;;;4.50;2.17;;;16.10;72.90;;;;;;5031908;28;20054;-64
2023/03/22 07:26:20;;;;;;;4.78;1.83;;;16.10;73.00;;;;;;5032169;28;20049;-59
2023/03/22 07:28:47;;;;;;;4.65;2.08;;;16.10;72.70;;;;;;5035048;28;20053;-59
2023/03/22 07:31:14;;;;;;;3.33;1.55;;;16.10;72.10;;;;;;5035801;28;20171;-54
2023/03/22 07:33:41;;;;;;;4.57;1.95;;;16.10;72.00;;;;;;5035898;28;20061;-56
2023/03/22 07:36:08;;;;;;;5.10;1.65;;;16.10;71.90;;;;;;5035022;28;20041;-55
2023/03/22 07:38:35;;;;;;;5.07;1.80;;;16.10;71.90;;;;;;5035879;28;20118;-56
2023/03/22 07:41:02;;;;;;;4.30;1.95;;;16.10;71.90;;;;;;5035332;28;20059;-56
2023/03/22 07:43:29;;;;;;;4.13;1.95;;;16.10;72.00;;;;;;5035981;28;20045;-56
2023/03/22 07:46:09;;;;;;;4.80;1.90;;;16.10;72.20;;;;;;5035185;28;20455;-55
2023/03/22 07:48:37;;;;;;;5.75;1.90;;;16.00;72.10;;;;;;5035121;28;20488;-56
2023/03/22 07:51:04;;;;;;;4.28;1.90;;;16.00;72.80;;;;;;5035348;28;20084;-56
2023/03/22 07:53:31;;;;;;;4.43;1.95;;;16.00;72.30;;;;;;5035757;28;20049;-56
2023/03/22 07:55:58;;;;;;;3.47;1.70;;;16.00;72.30;;;;;;5035042;28;20080;-56
2023/03/22 07:58:24;;;;;;;5.00;1.70;;;16.10;72.30;;;;;;5035442;28;20144;-52
2023/03/22 08:00:51;;;;;;;5.45;2.10;;;16.00;72.40;;;;;;5035224;28;20396;-55
2023/03/22 08:03:18;;;;;;;4.85;1.90;;;16.00;72.40;;;;;;5034609;28;20088;-56
2023/03/22 08:05:46;;;;;;;4.30;1.38;;;16.00;72.40;;;;;;5035384;28;20123;-55
2023/03/22 08:08:13;;;;;;;6.45;2.28;;;16.00;72.50;;;;;;5035438;28;20057;-56
2023/03/22 08:10:39;;;;;;;4.25;1.90;;;16.00;72.50;;;;;;5034941;28;20052;-55
2023/03/22 08:13:07;;;;;;;3.15;1.67;;;16.00;72.50;;;;;;5035076;28;20484;-56
2023/03/22 08:15:36;;;;;;;5.90;1.65;;;16.00;72.60;;;;;;5022199;28;20077;-56
2023/03/22 08:18:03;;;;;;;3.25;1.60;;;16.00;72.60;;;;;;5014552;28;20543;-56
2023/03/22 08:20:29;;;;;;;5.93;1.60;;;15.90;72.60;;;;;;5014671;28;20052;-56
2023/03/22 08:22:56;;;;;;;4.65;1.80;;;15.90;72.60;;;;;;5015276;28;20073;-57
2023/03/22 08:25:23;;;;;;;4.38;2.03;;;16.00;72.80;;;;;;5011236;28;20053;-57
2023/03/22 08:27:49;;;;;;;3.05;1.65;;;16.00;72.80;;;;;;5034308;28;20085;-57
2023/03/22 08:30:17;;;;;;;3.70;1.60;;;15.90;73.10;;;;;;5033878;28;20486;-57
2023/03/22 08:32:43;;;;;;;4.43;1.77;;;15.90;73.20;;;;;;5034468;28;20081;-57
2023/03/22 08:35:10;;;;;;;5.28;2.10;;;15.90;73.20;;;;;;5034825;28;20056;-57
2023/03/22 08:37:38;;;;;;;3.53;1.55;;;15.90;73.00;;;;;;5033970;28;20053;-58
2023/03/22 08:40:10;;;;;;;3.70;1.75;;;15.90;72.90;;;;;;5033463;28;20052;-56
2023/03/22 08:42:37;;;;;;;4.53;1.90;;;15.90;73.10;;;;;;5033020;28;20077;-53
2023/03/22 08:45:04;;;;;;;6.18;2.40;;;15.90;72.50;;;;;;5033269;28;20528;-55
2023/03/22 08:47:31;;;;;;;4.95;2.30;;;16.00;73.70;;;;;;5033712;28;20550;-54
2023/03/22 08:50:01;;;;;;;9.18;3.10;;;15.90;72.80;;;;;;5033551;28;20412;-55
2023/03/22 08:52:31;;;;;;;7.55;3.05;;;16.00;73.80;;;;;;5027869;28;20050;-56
2023/03/22 08:54:58;;;;;;;6.68;3.70;;;16.00;73.90;;;;;;4994967;28;20104;-56
2023/03/22 08:57:26;;;;;;;6.72;3.40;;;16.00;74.60;;;;;;4999371;28;20480;-48
2023/03/22 08:59:53;;;;;;;6.55;3.00;;;16.00;74.50;;;;;;5007208;28;20112;-47
2023/03/22 09:02:20;;;;;;;8.07;3.53;;;16.00;74.40;;;;;;5010351;28;20050;-46
2023/03/22 09:04:47;;;;;;;5.60;3.15;;;16.00;74.70;;;;;;5001255;28;20489;-49
2023/03/22 09:07:14;;;;;;;8.38;3.33;;;16.00;74.60;;;;;;5009441;28;20053;-52
2023/03/22 09:09:40;;;;;;;8.30;2.85;;;16.10;74.70;;;;;;5013941;28;20425;-47
2023/03/22 09:12:07;;;;;;;6.47;2.42;;;16.00;75.10;;;;;;5014172;28;20049;-51
2023/03/22 09:14:34;;;;;;;5.45;2.50;;;16.10;74.70;;;;;;5012816;28;20053;-49
2023/03/22 09:17:01;;;;;;;5.95;2.42;;;16.10;74.70;;;;;;5013810;28;20112;-46
2023/03/22 09:19:28;;;;;;;7.15;3.08;;;16.10;74.70;;;;;;5013555;28;20121;-48
2023/03/22 09:21:55;;;;;;;6.25;2.70;;;16.10;74.50;;;;;;5013583;28;20777;-51
2023/03/22 09:24:21;;;;;;;5.88;2.60;;;16.10;74.80;;;;;;5013688;28;20049;-50
2023/03/22 09:26:48;;;;;;;6.25;2.47;;;16.10;75.00;;;;;;5013315;28;20049;-50
2023/03/22 09:29:15;;;;;;;5.78;2.20;;;16.10;74.70;;;;;;5013376;28;20061;-47
2023/03/22 09:31:43;;;;;;;5.15;2.40;;;16.20;75.00;;;;;;5004556;28;20108;-46
2023/03/22 09:34:10;;;;;;;11.82;2.35;;;16.20;75.70;;;;;;5013018;28;20046;-49
2023/03/22 09:36:36;;;;;;;5.82;2.33;;;16.20;75.20;;;;;;5013744;28;20081;-45
2023/03/22 09:39:05;;;;;;;4.75;2.08;;;16.20;74.90;;;;;;5013650;28;20052;-51
2023/03/22 09:41:47;;;;;;;5.00;2.20;;;16.10;75.70;;;;;;5013206;28;20077;-49
2023/03/22 09:44:30;;;;;;;6.38;2.40;;;16.20;75.50;;;;;;5027183;28;20054;-45
2023/03/22 09:46:58;;;;;;;5.35;2.25;;;16.20;75.30;;;;;;5027546;28;20060;-46
2023/03/22 09:49:38;;;;;;;6.63;2.40;;;16.20;75.00;;;;;;5027748;28;20107;-50
2023/03/22 09:52:19;;;;;;;;;;;16.20;75.80;;;;;;5026559;28;20128;-48
2023/03/22 09:54:46;;;;;;;6.28;2.95;;;16.20;75.40;;;;;;5012918;28;20318;-49
2023/03/22 09:57:25;;;;;;;7.00;3.60;;;16.20;75.60;;;;;;5028242;28;20390;-50
2023/03/22 10:00:11;;;;;;;6.80;4.10;;;16.20;75.80;;;;;;5005378;28;20065;-48
2023/03/22 10:02:45;;;;;;;6.28;3.15;;;16.20;75.50;;;;;;5012368;28;20045;-49
2023/03/22 10:05:25;;;;;;;5.78;3.50;;;16.20;75.40;;;;;;5020569;28;20081;-46
2023/03/22 10:08:17;;;;;;;7.40;3.05;;;16.20;75.50;;;;;;5008053;28;20061;-49
2023/03/22 10:10:43;;;;;;;6.90;3.00;;;16.20;75.40;;;;;;5011484;28;20084;-51
2023/03/22 10:13:14;;;;;;;6.22;2.80;;;16.20;75.50;;;;;;5028295;28;20417;-47
2023/03/22 10:15:42;;;;;;;6.80;3.20;;;16.20;75.50;;;;;;5012171;28;20050;-46
2023/03/22 10:18:20;;;;;;;7.35;3.17;;;16.20;75.40;;;;;;5012739;28;20046;-49
2023/03/22 10:21:03;;;;;;;4.68;2.40;;;16.20;75.50;;;;;;5027549;28;20046;-49
2023/03/22 10:23:38;;;;;;;9.45;2.67;;;16.30;75.50;;;;;;5012122;28;20073;-51
2023/03/22 10:26:08;;;;;;;4.15;2.08;;;16.30;76.10;;;;;;5027685;28;20088;-51
2023/03/22 10:28:40;;;;;;;4.13;2.40;;;16.30;75.90;;;;;;5027716;28;20108;-50
2023/03/22 10:31:14;;;;;;;5.82;2.47;;;16.30;75.60;;;;;;5012594;28;20096;-47
2023/03/22 10:33:50;;;;;;;11.25;4.53;;;16.30;75.40;;;;;;5027882;28;20061;-47
2023/03/22 10:36:19;;;;;;;12.93;5.60;;;16.40;76.20;;;;;;5026721;28;20081;-44
2023/03/22 10:38:54;;;;;;;13.80;6.63;;;16.40;76.30;;;;;;5027190;28;20050;-46
2023/03/22 10:41:22;;;;;;;8.57;4.05;;;16.40;76.10;;;;;;5027104;28;20119;-49
2023/03/22 10:43:54;;;;;;;9.38;4.97;;;16.40;76.00;;;;;;5027246;28;20050;-50
2023/03/22 10:46:23;;;;;;;10.77;3.70;;;16.40;76.10;;;;;;5012921;28;20045;-49
2023/03/22 10:48:50;;;;;;;6.22;3.50;;;16.40;75.90;;;;;;5027532;28;20461;-49
2023/03/22 10:51:23;;;;;;;6.57;3.40;;;16.40;76.10;;;;;;5011764;28;20065;-47
2023/03/22 10:53:50;;;;;;;6.90;3.30;;;16.40;76.00;;;;;;5027141;28;20050;-50
2023/03/22 10:56:18;;;;;;;4.15;2.50;;;16.40;76.10;;;;;;5027524;28;20417;-47
2023/03/22 10:58:46;;;;;;;6.00;2.80;;;16.40;76.00;;;;;;5011829;28;20081;-50
2023/03/22 11:01:15;;;;;;;4.55;2.55;;;16.50;75.90;;;;;;5027754;28;20073;-49
2023/03/22 11:03:49;;;;;;;4.82;2.75;;;16.50;76.00;;;;;;5016322;28;20073;-50
2023/03/22 11:06:18;;;;;;;3.88;2.25;;;16.50;76.00;;;;;;5008492;28;20073;-48
2023/03/22 11:09:06;;;;;;;4.47;2.13;;;16.50;76.10;;;;;;5016358;28;20157;-47
2023/03/22 11:12:11;;;;;;;4.22;2.05;;;16.50;76.10;;;;;;5022271;28;20485;-44
2023/03/22 11:14:43;;;;;;;5.18;2.33;;;16.50;76.00;;;;;;5045197;28;20076;-51
2023/03/22 11:17:12;;;;;;;4.00;1.75;;;16.50;75.80;;;;;;5007177;28;20049;-46
2023/03/22 11:19:40;;;;;;;3.75;1.90;;;16.50;76.00;;;;;;5030730;28;20053;-49
2023/03/22 11:22:32;;;;;;;4.35;1.65;;;16.50;76.00;;;;;;5031483;28;20080;-46
2023/03/22 11:24:59;;;;;;;5.70;2.00;;;16.50;75.90;;;;;;5028738;28;20744;-48
2023/03/22 11:27:31;;;;;;;4.30;1.73;;;16.50;75.90;;;;;;5030870;28;20129;-48
2023/03/22 11:30:06;;;;;;;4.47;1.63;;;16.60;76.00;;;;;;5015634;28;20058;-47
2023/03/22 11:32:37;;;;;;;4.05;2.08;;;16.80;76.20;;;;;;5016310;28;20054;-52
2023/03/22 11:35:13;;;;;;;3.17;1.30;;;17.00;74.80;;;;;;5015241;28;20497;-45
2023/03/22 11:37:47;;;;;;;5.13;1.65;;;17.20;74.20;;;;;;5015660;28;20568;-44
2023/03/22 11:40:16;;;;;;;2.63;1.40;;;17.40;73.80;;;;;;5015377;28;20054;-46
2023/03/22 11:42:43;;;;;;;2.53;1.40;;;17.50;73.50;;;;;;5015637;28;20048;-44
2023/03/22 11:45:14;;;;;;;3.17;1.10;;;17.60;73.20;;;;;;5015547;28;20469;-45
2023/03/22 11:47:41;;;;;;;5.90;1.92;;;17.60;73.10;;;;;;5029898;28;20045;-51
2023/03/22 11:50:18;;;;;;;3.47;1.75;;;17.70;73.00;;;;;;5015798;28;20054;-47
2023/03/22 11:52:46;;;;;;;3.00;1.45;;;17.80;73.10;;;;;;5030687;28;20053;-47
2023/03/22 11:55:14;;;;;;;2.67;1.30;;;17.70;73.20;;;;;;5030236;28;20100;-50
2023/03/22 11:57:41;;;;;;;3.88;1.60;;;17.80;73.00;;;;;;5030739;28;20468;-52
2023/03/22 12:00:20;;;;;;;4.65;1.52;;;17.70;73.10;;;;;;5015168;28;20144;-54
2023/03/22 12:02:54;;;;;;;4.03;1.48;;;17.70;73.20;;;;;;5029968;28;20129;-50
2023/03/22 12:05:26;;;;;;;2.33;1.15;;;17.60;73.30;;;;;;5007286;28;20077;-47
2023/03/22 12:08:07;;;;;;;3.72;1.45;;;17.70;73.30;;;;;;5013399;28;20037;-53
2023/03/22 12:10:41;;;;;;;3.15;1.45;;;17.70;73.40;;;;;;5013870;28;20052;-51
2023/03/22 12:13:20;;;;;;;5.07;1.90;;;17.60;73.50;;;;;;5029790;28;20052;-52
2023/03/22 12:15:51;;;;;;;3.72;1.50;;;17.60;73.70;;;;;;5029499;28;20073;-47
2023/03/22 12:18:18;;;;;;;3.03;1.30;;;17.50;73.90;;;;;;5030205;28;20073;-47
2023/03/22 12:20:59;;;;;;;3.53;1.10;;;17.60;73.70;;;;;;5015055;28;20096;-51
2023/03/22 12:23:30;;;;;;;5.13;1.42;;;17.60;73.70;;;;;;5014271;28;20054;-51
2023/03/22 12:26:04;;;;;;;3.08;1.30;;;17.60;73.70;;;;;;5014584;28;20077;-52
2023/03/22 12:28:42;;;;;;;3.25;1.50;;;17.60;73.70;;;;;;5029041;28;20469;-52
2023/03/22 12:31:12;;;;;;;2.28;1.50;;;17.50;73.90;;;;;;5028889;28;20077;-52
2023/03/22 12:33:42;;;;;;;3.65;1.40;;;17.50;74.00;;;;;;5029886;28;20057;-52
2023/03/22 12:36:10;;;;;;;2.85;1.35;;;17.50;74.30;;;;;;5030040;28;20045;-51
2023/03/22 12:38:47;;;;;;;1.98;1.23;;;17.50;74.20;;;;;;5029472;28;20421;-52
2023/03/22 12:41:16;;;;;;;2.47;1.38;;;17.40;74.30;;;;;;5014441;28;20080;-55
2023/03/22 12:43:56;;;;;;;3.15;1.23;;;17.40;74.40;;;;;;5029036;28;20061;-54
2023/03/22 12:46:28;;;;;;;2.17;1.13;;;17.40;74.50;;;;;;5023807;28;20076;-53
2023/03/22 12:49:00;;;;;;;3.38;1.50;;;17.40;74.50;;;;;;5029606;28;20054;-52
2023/03/22 12:51:27;;;;;;;2.33;1.05;;;17.30;74.60;;;;;;5013605;28;20507;-48
2023/03/22 12:53:55;;;;;;;4.10;1.70;;;17.30;74.80;;;;;;5014593;28;20072;-51
2023/03/22 12:56:37;;;;;;;4.90;1.83;;;17.30;74.90;;;;;;5029551;28;20136;-51
2023/03/22 12:59:05;;;;;;;3.70;1.48;;;17.20;75.00;;;;;;5029222;28;20140;-52
2023/03/22 13:01:45;;;;;;;5.18;1.58;;;17.20;75.10;;;;;;5028995;28;20046;-50
2023/03/22 13:04:25;;;;;;;5.25;1.45;;;17.20;75.00;;;;;;5013352;28;20042;-51